Terminal Aerodrome Forecast
Issued by NWS North Platte, NE

Home | Current Version | Previous Version | Text Only | Print | Product List | Glossary Off
Versions: 1 2 3 4 5 6 7 8 9 10 11 12 13

440
FTUS43 KLBF 211120
TAFVTN
TAF
KVTN 211120Z 2112/2212 34012G18KT P6SM VCSH FEW060 OVC100
      TEMPO 2112/2113 1 1/2SM -SHSN OVC015
     FM211300 34014G22KT P6SM BKN080
     FM212100 32011KT P6SM FEW250
     FM212300 VRB06KT P6SM FEW250
     FM221000 19010KT P6SM FEW250=

USA.gov is the U.S. government's official web portal to all federal, state and local government web resources and services.